Time;durP1;ratioP1;P1;durP2;ratioP2;P2;SDS_P1;SDS_P2;PMS_P1;PMS_P2;Temp;Humidity;BMP_temperature;BMP_pressure;BME280_temperature;BME280_humidity;BME280_pressure;Samples;Min_cycle;Max_cycle;Signal;HPM_P1;HPM_P2
2022/01/27 00:01:10;;;;;;;92.25;50.45;;;;;;;;;;5033533;28;20096;-58
2022/01/27 00:03:44;;;;;;;97.15;53.13;;;;;;;;;;5033879;28;20408;-58
2022/01/27 00:06:11;;;;;;;95.97;55.90;;;;;;;;;;5034749;28;20017;-58
2022/01/27 00:08:48;;;;;;;95.50;51.92;;;;;;;;;;5033961;28;20025;-58
2022/01/27 00:11:15;;;;;;;91.65;51.42;;;;;;;;;;5035381;28;20420;-58
2022/01/27 00:13:46;;;;;;;89.95;51.75;;;;;;;;;;5033067;28;20102;-58
2022/01/27 00:16:16;;;;;;;83.32;51.90;;;;;;;;;;5035333;28;20088;-58
2022/01/27 00:18:42;;;;;;;90.10;52.03;;;;;;;;;;5032989;28;20049;-58
2022/01/27 00:21:07;;;;;;;86.95;51.20;;;;;;;;;;5034527;28;20114;-58
2022/01/27 00:23:32;;;;;;;88.13;48.35;;;;;;;;;;5033660;28;20013;-58
2022/01/27 00:25:57;;;;;;;94.70;56.42;;;;;;;;;;5041416;28;20017;-58
2022/01/27 00:28:23;;;;;;;100.03;55.72;;;;;;;;;;5054344;28;20081;-58
2022/01/27 00:30:48;;;;;;;102.83;50.50;;;;;;;;;;5052997;28;20041;-58
2022/01/27 00:33:13;;;;;;;94.15;52.92;;;;;;;;;;5054406;28;20025;-58
2022/01/27 00:35:38;;;;;;;85.30;50.47;;;;;;;;;;5036988;28;20614;-57
2022/01/27 00:38:03;;;;;;;93.37;53.40;;;;;;;;;;5034803;28;20057;-57
2022/01/27 00:40:29;;;;;;;95.73;55.73;;;;;;;;;;5050959;28;20842;-57
2022/01/27 00:42:54;;;;;;;85.55;48.47;;;;;;;;;;5053350;28;20514;-57
2022/01/27 00:45:20;;;;;;;90.40;53.85;;;;;;;;;;5052778;28;20087;-57
2022/01/27 00:47:45;;;;;;;86.28;51.25;;;;;;;;;;5054213;28;20037;-57
2022/01/27 00:50:11;;;;;;;87.72;54.90;;;;;;;;;;5052582;28;20424;-57
2022/01/27 00:52:41;;;;;;;88.90;55.60;;;;;;;;;;5053685;28;20475;-57
2022/01/27 00:55:07;;;;;;;83.28;51.92;;;;;;;;;;5052866;28;20033;-57
2022/01/27 01:00:04;;;;;;;81.75;54.17;;;;;;;;;;5052518;28;20037;-57
2022/01/27 01:05:25;;;;;;;74.78;47.50;;;;;;;;;;5052170;28;20550;-57
2022/01/27 01:07:54;;;;;;;72.40;49.80;;;;;;;;;;5053638;28;20100;-57
2022/01/27 01:15:34;;;;;;;70.03;48.83;;;;;;;;;;5032300;28;20033;-57
2022/01/27 01:18:07;;;;;;;;;;;;;;;;;;5033988;28;20538;-58
2022/01/27 01:31:16;;;;;;;69.90;43.60;;;;;;;;;;5033639;28;20068;-58
2022/01/27 01:33:43;;;;;;;71.55;44.20;;;;;;;;;;5032435;28;20021;-58
2022/01/27 01:36:26;;;;;;;76.68;50.40;;;;;;;;;;5053601;28;20051;-58
2022/01/27 01:38:51;;;;;;;65.95;42.88;;;;;;;;;;5032153;28;20045;-58
2022/01/27 01:41:16;;;;;;;63.92;43.78;;;;;;;;;;5032900;28;20021;-59
2022/01/27 01:43:41;;;;;;;65.57;45.27;;;;;;;;;;5031623;28;20017;-58
2022/01/27 01:46:06;;;;;;;70.45;43.63;;;;;;;;;;5033239;28;20424;-58
2022/01/27 01:48:32;;;;;;;62.60;41.22;;;;;;;;;;5031717;28;20018;-58
2022/01/27 01:50:57;;;;;;;62.15;43.33;;;;;;;;;;5033295;28;20036;-58
2022/01/27 01:53:22;;;;;;;64.72;42.92;;;;;;;;;;5052074;28;20044;-58
2022/01/27 01:55:48;;;;;;;67.07;38.92;;;;;;;;;;5050937;28;20407;-58
2022/01/27 01:58:13;;;;;;;60.10;38.60;;;;;;;;;;5053005;28;20407;-59
2022/01/27 02:00:38;;;;;;;58.17;38.30;;;;;;;;;;5051090;28;20037;-58
2022/01/27 02:03:03;;;;;;;56.42;39.17;;;;;;;;;;5053130;28;20026;-59
2022/01/27 02:05:34;;;;;;;57.22;38.83;;;;;;;;;;5040356;28;20404;-59
2022/01/27 02:19:07;;;;;;;59.90;36.38;;;;;;;;;;5030912;28;20049;-58
2022/01/27 02:21:32;;;;;;;52.53;36.97;;;;;;;;;;5032562;28;20395;-58
2022/01/27 02:23:57;;;;;;;50.38;36.75;;;;;;;;;;5030541;28;20479;-58
2022/01/27 02:26:23;;;;;;;59.65;36.08;;;;;;;;;;5032003;28;20021;-58
2022/01/27 02:28:48;;;;;;;61.20;39.50;;;;;;;;;;5030932;28;20025;-58
2022/01/27 02:31:13;;;;;;;54.22;33.63;;;;;;;;;;5033470;28;20578;-58
2022/01/27 02:33:39;;;;;;;61.25;40.28;;;;;;;;;;5030419;28;20032;-58
2022/01/27 02:36:04;;;;;;;48.08;35.22;;;;;;;;;;5047433;28;20027;-58
2022/01/27 02:38:29;;;;;;;57.30;34.90;;;;;;;;;;5049584;28;20361;-57
2022/01/27 02:40:59;;;;;;;58.20;38.00;;;;;;;;;;5051337;28;20025;-58
2022/01/27 02:43:24;;;;;;;57.25;36.60;;;;;;;;;;5050643;28;20017;-57
2022/01/27 02:45:53;;;;;;;52.40;35.85;;;;;;;;;;5038831;28;20018;-58
2022/01/27 02:48:19;;;;;;;50.72;30.98;;;;;;;;;;5031735;28;20023;-58
2022/01/27 02:50:44;;;;;;;51.20;34.10;;;;;;;;;;5030398;28;20033;-58
2022/01/27 02:53:09;;;;;;;43.40;32.93;;;;;;;;;;5031972;28;20079;-58
2022/01/27 02:55:35;;;;;;;61.42;39.38;;;;;;;;;;5040649;28;20044;-58
2022/01/27 02:58:00;;;;;;;51.97;35.47;;;;;;;;;;5051608;28;20400;-58
2022/01/27 03:00:25;;;;;;;51.42;33.30;;;;;;;;;;5050271;28;20400;-58
2022/01/27 03:02:50;;;;;;;54.25;35.08;;;;;;;;;;5051211;28;20029;-58
2022/01/27 03:05:15;;;;;;;53.33;34.88;;;;;;;;;;5042328;28;20041;-58
2022/01/27 03:07:41;;;;;;;58.00;36.92;;;;;;;;;;5031672;28;20021;-58
2022/01/27 03:10:06;;;;;;;55.65;35.03;;;;;;;;;;5029650;28;20037;-58
2022/01/27 03:12:32;;;;;;;62.22;40.45;;;;;;;;;;5031650;28;20025;-58
2022/01/27 03:14:58;;;;;;;47.17;32.95;;;;;;;;;;5034784;28;20044;-58
2022/01/27 03:17:23;;;;;;;57.88;36.38;;;;;;;;;;5051002;28;20056;-58
2022/01/27 03:19:49;;;;;;;50.65;36.10;;;;;;;;;;5049708;28;20613;-58
2022/01/27 03:22:14;;;;;;;49.75;34.00;;;;;;;;;;5051445;28;20025;-58
2022/01/27 03:24:39;;;;;;;55.13;38.03;;;;;;;;;;5046941;28;20098;-59
2022/01/27 03:27:15;;;;;;;54.35;37.60;;;;;;;;;;5031525;28;20071;-58
2022/01/27 03:29:40;;;;;;;50.58;33.45;;;;;;;;;;5039774;28;20064;-58
2022/01/27 03:32:06;;;;;;;52.17;34.00;;;;;;;;;;5050812;28;20060;-58
2022/01/27 03:34:31;;;;;;;51.08;32.90;;;;;;;;;;5049049;28;20546;-58
2022/01/27 03:36:56;;;;;;;53.30;37.43;;;;;;;;;;5051264;28;20009;-58
2022/01/27 03:39:22;;;;;;;48.85;32.13;;;;;;;;;;5041627;28;20484;-58
2022/01/27 03:41:50;;;;;;;53.53;33.50;;;;;;;;;;5031129;28;20079;-58
2022/01/27 03:44:15;;;;;;;54.63;33.83;;;;;;;;;;5029981;28;20026;-58
2022/01/27 03:46:41;;;;;;;51.50;34.00;;;;;;;;;;5030762;28;20029;-58
2022/01/27 03:49:06;;;;;;;53.00;34.88;;;;;;;;;;5034483;28;20025;-57
2022/01/27 03:51:31;;;;;;;46.60;31.30;;;;;;;;;;5051038;28;20037;-58
2022/01/27 03:53:56;;;;;;;54.27;34.27;;;;;;;;;;5049240;28;20436;-58
2022/01/27 03:56:21;;;;;;;55.07;38.40;;;;;;;;;;5050228;28;20522;-57
2022/01/27 03:58:46;;;;;;;59.13;34.50;;;;;;;;;;5046703;28;20452;-58
2022/01/27 04:01:11;;;;;;;47.10;32.60;;;;;;;;;;5031224;28;20024;-59
2022/01/27 04:03:38;;;;;;;57.23;39.37;;;;;;;;;;5029635;28;20021;-58
2022/01/27 04:06:07;;;;;;;60.78;37.75;;;;;;;;;;5031241;28;20063;-58
2022/01/27 04:08:34;;;;;;;54.10;34.10;;;;;;;;;;5029844;28;20070;-58
2022/01/27 04:10:59;;;;;;;47.58;32.83;;;;;;;;;;5030494;28;20419;-58
2022/01/27 04:13:24;;;;;;;51.77;36.30;;;;;;;;;;5029572;28;20022;-57
2022/01/27 04:15:49;;;;;;;56.43;38.53;;;;;;;;;;5030986;28;20424;-58
2022/01/27 04:18:14;;;;;;;46.33;33.63;;;;;;;;;;5030486;28;20998;-58
2022/01/27 04:20:40;;;;;;;50.87;34.87;;;;;;;;;;5046040;28;20459;-58
2022/01/27 04:23:05;;;;;;;56.03;34.42;;;;;;;;;;5050840;28;20474;-59
2022/01/27 04:25:31;;;;;;;52.53;35.30;;;;;;;;;;5048921;28;20033;-58
2022/01/27 04:27:57;;;;;;;42.88;31.83;;;;;;;;;;5050641;28;20361;-57
2022/01/27 04:30:25;;;;;;;59.13;34.08;;;;;;;;;;5034427;28;20069;-57
2022/01/27 04:32:54;;;;;;;55.53;35.03;;;;;;;;;;5030325;28;20021;-58
2022/01/27 04:35:21;;;;;;;53.88;34.60;;;;;;;;;;5029280;28;20099;-58
2022/01/27 04:38:01;;;;;;;47.58;33.83;;;;;;;;;;5030608;28;20026;-59
2022/01/27 04:40:34;;;;;;;48.17;35.17;;;;;;;;;;5043140;28;20048;-58
2022/01/27 04:45:31;;;;;;;44.72;32.80;;;;;;;;;;5050042;28;20053;-58
2022/01/27 04:48:06;;;;;;;56.55;36.90;;;;;;;;;;5053934;28;20415;-58
2022/01/27 04:50:31;;;;;;;48.50;33.92;;;;;;;;;;5037081;28;20124;-58
2022/01/27 04:52:58;;;;;;;50.83;34.67;;;;;;;;;;5033963;28;20111;-58
2022/01/27 04:55:25;;;;;;;46.13;33.05;;;;;;;;;;5032476;28;21123;-58
2022/01/27 04:58:04;;;;;;;49.13;34.50;;;;;;;;;;5033996;28;20492;-58
2022/01/27 05:00:29;;;;;;;44.92;32.78;;;;;;;;;;5033541;28;20049;-58
2022/01/27 05:02:58;;;;;;;45.97;32.03;;;;;;;;;;5035855;28;20017;-58
2022/01/27 05:05:23;;;;;;;46.00;32.97;;;;;;;;;;5042462;28;20474;-57
2022/01/27 05:07:55;;;;;;;46.03;36.10;;;;;;;;;;5042583;28;20546;-57
2022/01/27 05:10:24;;;;;;;57.05;33.92;;;;;;;;;;5040203;28;20045;-57
2022/01/27 05:12:52;;;;;;;52.17;35.10;;;;;;;;;;5040634;28;20013;-56
2022/01/27 05:15:18;;;;;;;43.97;30.08;;;;;;;;;;5039022;28;20038;-57
2022/01/27 05:17:43;;;;;;;53.33;35.90;;;;;;;;;;5042176;28;20128;-56
2022/01/27 05:20:08;;;;;;;55.63;34.43;;;;;;;;;;5041355;28;20033;-56
2022/01/27 05:22:34;;;;;;;41.80;32.13;;;;;;;;;;5041819;28;20439;-57
2022/01/27 05:24:59;;;;;;;52.17;32.90;;;;;;;;;;5039375;28;20143;-57
2022/01/27 05:27:24;;;;;;;48.28;32.65;;;;;;;;;;5042565;28;20067;-57
2022/01/27 05:29:51;;;;;;;54.08;33.63;;;;;;;;;;5042151;28;20033;-57
2022/01/27 05:32:17;;;;;;;43.58;30.58;;;;;;;;;;5042450;28;20013;-57
2022/01/27 05:34:42;;;;;;;56.22;35.50;;;;;;;;;;5038568;28;20459;-57
2022/01/27 05:37:07;;;;;;;54.72;30.60;;;;;;;;;;5042863;28;20012;-58
2022/01/27 05:39:32;;;;;;;53.70;34.17;;;;;;;;;;5038937;28;21444;-57
2022/01/27 05:41:57;;;;;;;47.58;30.77;;;;;;;;;;5043493;28;20464;-57
2022/01/27 05:44:22;;;;;;;48.67;32.83;;;;;;;;;;5041081;28;20116;-57
2022/01/27 05:46:48;;;;;;;53.63;37.80;;;;;;;;;;5049717;28;20021;-57
2022/01/27 05:49:13;;;;;;;49.65;33.97;;;;;;;;;;5051873;28;20029;-57
2022/01/27 05:51:38;;;;;;;42.72;27.33;;;;;;;;;;5052636;28;20064;-57
2022/01/27 05:54:03;;;;;;;47.67;31.50;;;;;;;;;;5051250;28;20040;-57
2022/01/27 05:56:28;;;;;;;53.60;31.80;;;;;;;;;;5052814;28;20025;-57
2022/01/27 05:58:53;;;;;;;43.88;30.88;;;;;;;;;;5050989;28;20513;-57
2022/01/27 06:01:19;;;;;;;51.03;32.70;;;;;;;;;;5052492;28;20021;-57
2022/01/27 06:03:44;;;;;;;50.73;31.77;;;;;;;;;;5051396;28;20155;-57
2022/01/27 06:06:09;;;;;;;49.90;30.87;;;;;;;;;;5052909;28;20491;-57
2022/01/27 06:08:34;;;;;;;55.90;34.27;;;;;;;;;;5044986;28;20014;-57
2022/01/27 06:10:59;;;;;;;48.57;31.27;;;;;;;;;;5036512;28;20420;-57
2022/01/27 06:13:25;;;;;;;59.83;34.60;;;;;;;;;;5031259;28;20510;-56
2022/01/27 06:15:50;;;;;;;50.50;31.48;;;;;;;;;;5032083;28;20420;-57
2022/01/27 06:18:15;;;;;;;57.60;34.80;;;;;;;;;;5032556;28;20053;-57
2022/01/27 06:20:43;;;;;;;57.23;37.07;;;;;;;;;;5030837;28;20432;-57
2022/01/27 06:23:08;;;;;;;57.03;35.92;;;;;;;;;;5032313;28;20946;-57
2022/01/27 06:25:33;;;;;;;60.67;38.60;;;;;;;;;;5031148;28;20033;-57
2022/01/27 06:27:59;;;;;;;61.80;35.15;;;;;;;;;;5032445;28;20436;-57
2022/01/27 06:30:24;;;;;;;67.77;39.27;;;;;;;;;;5030620;28;20420;-57
2022/01/27 06:32:49;;;;;;;56.27;36.40;;;;;;;;;;5032139;28;20433;-58
2022/01/27 06:35:14;;;;;;;52.88;33.40;;;;;;;;;;5030789;28;20094;-57
2022/01/27 06:37:41;;;;;;;52.43;33.93;;;;;;;;;;5032138;28;20056;-58
2022/01/27 06:40:07;;;;;;;59.38;35.08;;;;;;;;;;5030683;28;20923;-57
2022/01/27 06:42:32;;;;;;;50.08;29.90;;;;;;;;;;5032020;28;20056;-57
2022/01/27 06:44:57;;;;;;;52.40;32.65;;;;;;;;;;5030275;28;20037;-57
2022/01/27 06:47:22;;;;;;;53.15;32.30;;;;;;;;;;5032486;28;20029;-58
2022/01/27 06:49:48;;;;;;;57.83;33.13;;;;;;;;;;5030427;28;20049;-57
2022/01/27 06:52:13;;;;;;;64.90;34.72;;;;;;;;;;5031565;28;20791;-58
2022/01/27 06:54:38;;;;;;;54.05;32.92;;;;;;;;;;5030415;28;20044;-58
2022/01/27 06:57:05;;;;;;;51.55;33.10;;;;;;;;;;5031862;28;20449;-57
2022/01/27 06:59:30;;;;;;;51.08;36.22;;;;;;;;;;5030263;28;20037;-57
2022/01/27 07:01:56;;;;;;;54.33;32.28;;;;;;;;;;5031832;28;20022;-57
2022/01/27 07:04:21;;;;;;;59.22;35.17;;;;;;;;;;5030280;28;20060;-58
2022/01/27 07:06:48;;;;;;;54.15;34.63;;;;;;;;;;5030898;28;20029;-57
2022/01/27 07:09:13;;;;;;;56.60;33.50;;;;;;;;;;5030315;28;20030;-58
2022/01/27 07:11:38;;;;;;;56.83;35.58;;;;;;;;;;5031421;28;20075;-58
2022/01/27 07:14:03;;;;;;;64.63;35.27;;;;;;;;;;5029954;28;20044;-58
2022/01/27 07:16:29;;;;;;;67.47;38.53;;;;;;;;;;5031684;28;20432;-56
2022/01/27 07:18:55;;;;;;;68.03;36.80;;;;;;;;;;5029615;28;20504;-57
2022/01/27 07:21:20;;;;;;;63.08;39.10;;;;;;;;;;5035044;28;20555;-56
2022/01/27 07:23:46;;;;;;;61.27;37.60;;;;;;;;;;5049872;28;20167;-56
2022/01/27 07:26:11;;;;;;;65.97;40.25;;;;;;;;;;5049076;28;21032;-56
2022/01/27 07:28:37;;;;;;;82.95;43.70;;;;;;;;;;5043531;28;20052;-56
2022/01/27 07:31:02;;;;;;;87.23;42.57;;;;;;;;;;5050005;28;20025;-56
2022/01/27 07:33:27;;;;;;;78.68;44.10;;;;;;;;;;5050303;28;20025;-56
2022/01/27 07:35:52;;;;;;;67.32;40.90;;;;;;;;;;5049355;28;20130;-56
2022/01/27 07:38:18;;;;;;;69.17;43.13;;;;;;;;;;5050859;28;20017;-56
2022/01/27 07:40:43;;;;;;;76.95;47.92;;;;;;;;;;5049342;28;20526;-56
2022/01/27 07:43:11;;;;;;;81.00;41.53;;;;;;;;;;5051160;28;20583;-56
2022/01/27 07:45:36;;;;;;;55.35;35.33;;;;;;;;;;5049337;28;20036;-56
2022/01/27 07:48:01;;;;;;;74.82;41.40;;;;;;;;;;5050750;28;20013;-56
2022/01/27 07:50:29;;;;;;;77.47;42.97;;;;;;;;;;5049664;28;20036;-54
2022/01/27 07:52:55;;;;;;;74.50;42.42;;;;;;;;;;5050435;28;20784;-53
2022/01/27 07:55:20;;;;;;;78.30;45.08;;;;;;;;;;5049434;28;20037;-53
2022/01/27 07:57:45;;;;;;;73.63;41.25;;;;;;;;;;5050812;28;20028;-54
2022/01/27 08:00:11;;;;;;;69.20;38.93;;;;;;;;;;5049054;28;20411;-53
2022/01/27 08:02:36;;;;;;;77.00;42.95;;;;;;;;;;5051060;28;20013;-54
2022/01/27 08:05:01;;;;;;;72.50;42.58;;;;;;;;;;5049253;28;20396;-54
2022/01/27 08:07:26;;;;;;;73.07;43.37;;;;;;;;;;5050988;28;20021;-54
2022/01/27 08:09:51;;;;;;;68.97;39.00;;;;;;;;;;5049204;28;20033;-54
2022/01/27 08:12:17;;;;;;;79.78;41.60;;;;;;;;;;5050709;28;20021;-55
2022/01/27 08:14:42;;;;;;;77.57;43.53;;;;;;;;;;5048957;28;20033;-53
2022/01/27 08:17:08;;;;;;;70.38;42.45;;;;;;;;;;5050590;28;20036;-54
2022/01/27 08:19:33;;;;;;;63.85;42.00;;;;;;;;;;5049322;28;20041;-54
2022/01/27 08:21:58;;;;;;;67.90;40.72;;;;;;;;;;5053546;28;20592;-54
2022/01/27 08:24:24;;;;;;;70.30;43.53;;;;;;;;;;5053435;28;20119;-54
2022/01/27 08:26:50;;;;;;;64.45;40.97;;;;;;;;;;5054603;28;20540;-53
2022/01/27 08:29:21;;;;;;;71.15;39.53;;;;;;;;;;5052883;28;20137;-54
2022/01/27 08:34:29;;;;;;;65.68;40.22;;;;;;;;;;5053127;28;20033;-54
2022/01/27 08:36:54;;;;;;;62.78;42.88;;;;;;;;;;5053939;28;20484;-54
2022/01/27 08:39:19;;;;;;;60.80;38.58;;;;;;;;;;5053074;28;20060;-53
2022/01/27 08:41:45;;;;;;;65.20;39.77;;;;;;;;;;5054025;28;20124;-55
2022/01/27 08:44:10;;;;;;;63.23;38.97;;;;;;;;;;5052496;28;20806;-54
2022/01/27 08:46:36;;;;;;;64.82;41.65;;;;;;;;;;5054541;28;20041;-54
2022/01/27 08:49:02;;;;;;;67.40;40.47;;;;;;;;;;5052764;28;20424;-54
2022/01/27 08:51:29;;;;;;;53.80;35.15;;;;;;;;;;5053850;28;20107;-54
2022/01/27 08:53:54;;;;;;;57.92;35.67;;;;;;;;;;5052590;28;20036;-55
2022/01/27 08:56:19;;;;;;;66.10;38.42;;;;;;;;;;5047449;28;20028;-54
2022/01/27 08:58:44;;;;;;;57.20;37.33;;;;;;;;;;5050835;28;20029;-54
2022/01/27 09:01:09;;;;;;;60.43;36.57;;;;;;;;;;5053061;28;20376;-54
2022/01/27 09:03:35;;;;;;;57.22;34.97;;;;;;;;;;5044304;28;20435;-54
2022/01/27 09:06:00;;;;;;;56.60;36.13;;;;;;;;;;5053185;28;20448;-54
2022/01/27 09:08:27;;;;;;;48.80;31.60;;;;;;;;;;5052519;28;20013;-55
2022/01/27 09:10:53;;;;;;;57.03;35.55;;;;;;;;;;5053759;28;20438;-54
2022/01/27 09:13:18;;;;;;;58.08;34.63;;;;;;;;;;5053216;28;20014;-55
2022/01/27 09:15:43;;;;;;;56.90;34.45;;;;;;;;;;5032047;28;20521;-53
2022/01/27 09:18:09;;;;;;;60.13;37.40;;;;;;;;;;5033617;28;20076;-54
2022/01/27 09:20:34;;;;;;;51.97;33.55;;;;;;;;;;5046165;28;20663;-55
2022/01/27 09:23:00;;;;;;;58.20;33.23;;;;;;;;;;5053348;28;20021;-54
2022/01/27 09:25:31;;;;;;;51.58;31.85;;;;;;;;;;5051854;28;20990;-55
2022/01/27 09:27:58;;;;;;;53.30;30.05;;;;;;;;;;5053202;28;20021;-54
2022/01/27 09:30:23;;;;;;;52.13;32.15;;;;;;;;;;5051923;28;20695;-54
2022/01/27 09:32:49;;;;;;;56.17;32.90;;;;;;;;;;5051790;28;20029;-55
2022/01/27 09:35:15;;;;;;;44.67;31.10;;;;;;;;;;5051688;28;20029;-54
2022/01/27 09:37:40;;;;;;;51.97;29.83;;;;;;;;;;5053211;28;20017;-55
2022/01/27 09:40:08;;;;;;;53.17;31.37;;;;;;;;;;5051639;28;20040;-55
2022/01/27 09:42:35;;;;;;;42.22;27.88;;;;;;;;;;5053193;28;20442;-55
2022/01/27 09:45:03;;;;;;;45.95;28.13;;;;;;;;;;5051461;28;20052;-55
2022/01/27 09:47:31;;;;;;;42.35;28.42;;;;;;;;;;5053403;28;20017;-55
2022/01/27 09:50:07;;;;;;;48.72;33.35;;;;;;;;;;5051112;28;20091;-55
2022/01/27 09:52:32;;;;;;;37.95;29.98;;;;;;;;;;5053330;28;20013;-55
2022/01/27 09:54:58;;;;;;;49.58;30.42;;;;;;;;;;5051220;28;20066;-55
2022/01/27 09:57:23;;;;;;;40.83;24.75;;;;;;;;;;5052831;28;20020;-55
2022/01/27 09:59:48;;;;;;;42.42;29.42;;;;;;;;;;5051259;28;20033;-54
2022/01/27 10:02:15;;;;;;;46.00;27.80;;;;;;;;;;5052771;28;20025;-54
2022/01/27 10:04:49;;;;;;;40.90;25.77;;;;;;;;;;5050517;28;20029;-55
2022/01/27 10:07:16;;;;;;;41.25;25.33;;;;;;;;;;5045486;28;20116;-55
2022/01/27 10:09:56;;;;;;;37.45;26.15;;;;;;;;;;5044118;28;20029;-55
2022/01/27 10:12:30;;;;;;;37.90;24.45;;;;;;;;;;5049275;28;20026;-54
2022/01/27 10:14:56;;;;;;;37.28;25.38;;;;;;;;;;5030884;28;20051;-55
2022/01/27 10:17:22;;;;;;;38.33;24.10;;;;;;;;;;5032532;28;20057;-55
2022/01/27 10:19:52;;;;;;;37.03;23.53;;;;;;;;;;5030581;28;20396;-55
2022/01/27 10:22:17;;;;;;;35.60;23.73;;;;;;;;;;5032453;28;20112;-55
2022/01/27 10:24:43;;;;;;;35.05;23.88;;;;;;;;;;5030884;28;20112;-55
2022/01/27 10:27:17;;;;;;;36.05;24.67;;;;;;;;;;5032387;28;20100;-55
2022/01/27 10:32:38;;;;;;;32.15;24.55;;;;;;;;;;5052488;28;20056;-55
2022/01/27 10:35:04;;;;;;;36.35;24.67;;;;;;;;;;5048320;28;20090;-56
2022/01/27 10:37:49;;;;;;;34.90;23.27;;;;;;;;;;5051305;28;20021;-55
2022/01/27 10:40:19;;;;;;;35.90;24.00;;;;;;;;;;5049834;28;20037;-53
2022/01/27 10:42:45;;;;;;;33.35;23.80;;;;;;;;;;5051004;28;20017;-55
2022/01/27 10:45:14;;;;;;;41.95;28.08;;;;;;;;;;5050362;28;20120;-55
2022/01/27 10:47:44;;;;;;;34.13;23.73;;;;;;;;;;5051865;28;20082;-55
2022/01/27 10:50:11;;;;;;;35.03;27.15;;;;;;;;;;5050059;28;20202;-55
2022/01/27 10:52:46;;;;;;;32.53;24.92;;;;;;;;;;5049804;28;20056;-54
2022/01/27 10:55:13;;;;;;;30.25;23.08;;;;;;;;;;5050454;28;20499;-54
2022/01/27 10:57:38;;;;;;;30.02;22.38;;;;;;;;;;5051320;28;20021;-56
2022/01/27 11:00:06;;;;;;;37.22;23.23;;;;;;;;;;5050358;28;20037;-55
2022/01/27 11:02:32;;;;;;;37.75;24.48;;;;;;;;;;5052013;28;20013;-54
2022/01/27 11:04:57;;;;;;;32.35;22.48;;;;;;;;;;5049797;28;20361;-54
2022/01/27 11:07:24;;;;;;;26.98;19.90;;;;;;;;;;5051893;28;20024;-54
2022/01/27 11:09:50;;;;;;;23.30;20.05;;;;;;;;;;5048013;28;20029;-55
2022/01/27 11:12:18;;;;;;;31.85;23.63;;;;;;;;;;5038552;28;20017;-55
2022/01/27 11:14:45;;;;;;;27.98;21.58;;;;;;;;;;5044591;28;20055;-55
2022/01/27 11:17:15;;;;;;;27.98;21.73;;;;;;;;;;5051337;28;20037;-55
2022/01/27 11:20:00;;;;;;;29.05;20.92;;;;;;;;;;5036734;28;20581;-55
2022/01/27 11:27:48;;;;;;;31.52;22.73;;;;;;;;;;5020491;28;20503;-54
2022/01/27 11:30:24;;;;;;;29.63;21.25;;;;;;;;;;5031042;28;20099;-55
2022/01/27 11:33:02;;;;;;;26.75;19.55;;;;;;;;;;5031102;28;20415;-54
2022/01/27 11:35:27;;;;;;;29.90;21.40;;;;;;;;;;5037579;28;20151;-56
2022/01/27 11:37:52;;;;;;;25.67;19.27;;;;;;;;;;5049605;28;20523;-55
2022/01/27 11:40:20;;;;;;;29.02;21.88;;;;;;;;;;5048560;28;20029;-54
2022/01/27 11:42:54;;;;;;;21.27;19.00;;;;;;;;;;5032839;28;20104;-54
2022/01/27 11:45:22;;;;;;;26.30;19.35;;;;;;;;;;5029605;28;20036;-54
2022/01/27 11:47:49;;;;;;;24.77;20.77;;;;;;;;;;5030928;28;20104;-54
2022/01/27 11:50:30;;;;;;;21.77;17.60;;;;;;;;;;5029667;28;20496;-55
2022/01/27 11:52:56;;;;;;;26.45;20.10;;;;;;;;;;5031006;28;20022;-55
2022/01/27 11:55:24;;;;;;;23.10;18.48;;;;;;;;;;5028534;28;20083;-55
2022/01/27 11:57:53;;;;;;;22.40;18.73;;;;;;;;;;5031157;28;20024;-54
2022/01/27 12:00:20;;;;;;;31.63;20.27;;;;;;;;;;5029498;28;20060;-53
2022/01/27 12:03:07;;;;;;;22.30;17.92;;;;;;;;;;5030741;28;20032;-54
2022/01/27 12:05:33;;;;;;;25.40;17.20;;;;;;;;;;5029696;28;20511;-55
2022/01/27 12:08:14;;;;;;;27.73;19.38;;;;;;;;;;5030786;28;20075;-55
2022/01/27 12:10:45;;;;;;;28.08;19.52;;;;;;;;;;5036752;28;20103;-55
2022/01/27 12:13:32;;;;;;;27.60;20.95;;;;;;;;;;5036369;28;20056;-55
2022/01/27 12:19:03;;;;;;;27.83;18.58;;;;;;;;;;5028939;28;20148;-55
2022/01/27 12:21:32;;;;;;;23.70;18.50;;;;;;;;;;5031076;28;20064;-55
2022/01/27 12:24:13;;;;;;;26.10;17.83;;;;;;;;;;5029269;28;20033;-55
2022/01/27 12:26:57;;;;;;;24.17;16.95;;;;;;;;;;5030626;28;20100;-55
2022/01/27 12:29:43;;;;;;;21.33;17.75;;;;;;;;;;5029354;28;20555;-55
2022/01/27 12:32:28;;;;;;;22.15;17.92;;;;;;;;;;5030183;28;20137;-56
2022/01/27 12:34:53;;;;;;;24.23;19.67;;;;;;;;;;5036039;28;20107;-54
2022/01/27 12:37:21;;;;;;;24.33;20.20;;;;;;;;;;5047787;28;20037;-55
2022/01/27 12:39:56;;;;;;;27.15;19.40;;;;;;;;;;5046397;28;20463;-55
2022/01/27 12:42:26;;;;;;;24.70;17.20;;;;;;;;;;5040100;28;20080;-55
2022/01/27 12:44:52;;;;;;;28.05;19.10;;;;;;;;;;5029025;28;20116;-55
2022/01/27 12:47:18;;;;;;;35.83;20.50;;;;;;;;;;5030553;28;20026;-55
2022/01/27 12:49:47;;;;;;;32.10;19.83;;;;;;;;;;5029130;28;20067;-55
2022/01/27 12:52:15;;;;;;;48.47;19.40;;;;;;;;;;5041420;28;20447;-55
2022/01/27 12:54:41;;;;;;;30.98;19.80;;;;;;;;;;5040103;28;20041;-54
2022/01/27 12:57:07;;;;;;;31.02;19.83;;;;;;;;;;5050500;28;20029;-55
2022/01/27 12:59:34;;;;;;;30.08;22.70;;;;;;;;;;5048913;28;20037;-55
2022/01/27 13:02:00;;;;;;;30.67;21.80;;;;;;;;;;5050140;28;20017;-54
2022/01/27 13:04:25;;;;;;;32.55;20.17;;;;;;;;;;5049225;28;20029;-55
2022/01/27 13:06:54;;;;;;;25.42;19.88;;;;;;;;;;5051548;28;20376;-55
2022/01/27 13:09:19;;;;;;;33.42;21.08;;;;;;;;;;5052256;28;20060;-55
2022/01/27 13:11:46;;;;;;;27.42;21.85;;;;;;;;;;5053887;28;20021;-56
2022/01/27 13:14:12;;;;;;;31.90;22.83;;;;;;;;;;5052533;28;20029;-55
2022/01/27 13:16:41;;;;;;;41.15;24.73;;;;;;;;;;5053550;28;20108;-56
2022/01/27 13:19:18;;;;;;;47.40;24.58;;;;;;;;;;5052118;28;20053;-55
2022/01/27 13:21:46;;;;;;;46.05;25.35;;;;;;;;;;5050410;28;20025;-55
2022/01/27 13:24:15;;;;;;;36.13;22.10;;;;;;;;;;5052228;28;20029;-56
2022/01/27 13:26:44;;;;;;;27.63;18.25;;;;;;;;;;5053727;28;20029;-55
2022/01/27 13:29:09;;;;;;;39.85;21.95;;;;;;;;;;5052147;28;20028;-55
2022/01/27 13:31:34;;;;;;;30.52;22.60;;;;;;;;;;5053389;28;20024;-55
2022/01/27 13:34:03;;;;;;;38.60;24.37;;;;;;;;;;5051730;28;20094;-55
2022/01/27 13:36:28;;;;;;;56.10;25.02;;;;;;;;;;5053765;28;20036;-55
2022/01/27 13:39:02;;;;;;;33.85;20.20;;;;;;;;;;5051501;28;20031;-55
2022/01/27 13:41:29;;;;;;;35.63;20.80;;;;;;;;;;5053520;28;20025;-55
2022/01/27 13:43:54;;;;;;;26.77;17.95;;;;;;;;;;5051891;28;20391;-56
2022/01/27 13:46:38;;;;;;;36.83;19.77;;;;;;;;;;5053272;28;20036;-55
2022/01/27 13:49:04;;;;;;;34.35;20.90;;;;;;;;;;5051787;28;20033;-55
2022/01/27 13:51:29;;;;;;;24.35;16.20;;;;;;;;;;5053228;28;20044;-56
2022/01/27 13:53:59;;;;;;;24.63;15.55;;;;;;;;;;5050911;28;20492;-56
2022/01/27 13:56:24;;;;;;;19.23;13.50;;;;;;;;;;5034434;28;20396;-55
2022/01/27 13:59:09;;;;;;;21.58;12.43;;;;;;;;;;5031506;28;20034;-55
2022/01/27 14:01:34;;;;;;;15.90;11.52;;;;;;;;;;5033091;28;20118;-55
2022/01/27 14:03:59;;;;;;;25.02;14.07;;;;;;;;;;5031207;28;20115;-55
2022/01/27 14:06:24;;;;;;;23.52;11.93;;;;;;;;;;5032991;28;20056;-56
2022/01/27 14:08:56;;;;;;;16.73;10.60;;;;;;;;;;5030934;28;20504;-55
2022/01/27 14:11:32;;;;;;;22.70;11.65;;;;;;;;;;5033147;28;20025;-56
2022/01/27 14:13:59;;;;;;;24.23;9.75;;;;;;;;;;5031189;28;20125;-55
2022/01/27 14:16:28;;;;;;;16.35;10.20;;;;;;;;;;5035882;28;20115;-56
2022/01/27 14:18:53;;;;;;;19.40;9.38;;;;;;;;;;5043913;28;20567;-55
2022/01/27 14:21:23;;;;;;;15.98;9.88;;;;;;;;;;5052488;28;20100;-55
2022/01/27 14:28:54;;;;;;;15.43;7.43;;;;;;;;;;5051204;28;20029;-55
2022/01/27 14:31:19;;;;;;;20.45;12.82;;;;;;;;;;5052509;28;20127;-56
2022/01/27 14:33:45;;;;;;;14.27;8.80;;;;;;;;;;5050688;28;20516;-56
2022/01/27 14:36:11;;;;;;;25.40;7.50;;;;;;;;;;5038815;28;20100;-56
2022/01/27 14:38:36;;;;;;;20.05;8.82;;;;;;;;;;5030917;28;20103;-56
2022/01/27 14:41:01;;;;;;;18.73;7.13;;;;;;;;;;5032064;28;20483;-55
2022/01/27 14:43:29;;;;;;;19.27;8.00;;;;;;;;;;5030856;28;20420;-53
2022/01/27 14:45:55;;;;;;;19.90;6.65;;;;;;;;;;5031937;28;20428;-55
2022/01/27 14:48:20;;;;;;;34.00;8.10;;;;;;;;;;5032100;28;20048;-55
2022/01/27 14:50:45;;;;;;;16.55;7.07;;;;;;;;;;5030549;28;20478;-55
2022/01/27 14:53:10;;;;;;;11.70;6.72;;;;;;;;;;5031435;28;20029;-55
2022/01/27 14:55:36;;;;;;;22.07;6.93;;;;;;;;;;5030707;28;20033;-55
2022/01/27 14:58:01;;;;;;;25.92;9.13;;;;;;;;;;5031816;28;20467;-55
2022/01/27 15:00:27;;;;;;;23.40;6.20;;;;;;;;;;5030136;28;20053;-56
2022/01/27 15:02:52;;;;;;;11.00;5.28;;;;;;;;;;5031695;28;20113;-55
2022/01/27 15:05:18;;;;;;;18.10;5.82;;;;;;;;;;5030359;28;20109;-55
2022/01/27 15:07:45;;;;;;;17.05;6.72;;;;;;;;;;5031452;28;20074;-56
2022/01/27 15:10:11;;;;;;;22.10;7.07;;;;;;;;;;5030537;28;20029;-55
2022/01/27 15:12:37;;;;;;;16.25;4.50;;;;;;;;;;5032325;28;20500;-55